Time;durP1;ratioP1;P1;durP2;ratioP2;P2;SDS_P1;SDS_P2;PMS_P1;PMS_P2;Temp;Humidity;BMP_temperature;BMP_pressure;BME280_temperature;BME280_humidity;BME280_pressure;Samples;Min_cycle;Max_cycle;Signal;HPM_P1;HPM_P2
2023/08/18 00:01:54;;;;;;;2.60;2.17;;;28.40;49.20;;;;;;5048763;28;45297;-72
2023/08/18 00:04:21;;;;;;;2.50;2.03;;;28.40;49.20;;;;;;5048671;28;45434;-72
2023/08/18 00:06:47;;;;;;;4.20;2.13;;;28.40;49.30;;;;;;5049066;28;45252;-72
2023/08/18 00:09:14;;;;;;;2.80;1.95;;;28.30;49.10;;;;;;5048585;28;45468;-72
2023/08/18 00:11:41;;;;;;;3.83;2.00;;;28.30;49.30;;;;;;5048740;28;45282;-72
2023/08/18 00:14:08;;;;;;;3.85;2.13;;;28.30;49.30;;;;;;5048829;28;45293;-72
2023/08/18 00:16:34;;;;;;;2.05;1.80;;;28.30;49.20;;;;;;5048732;28;45269;-72
2023/08/18 00:19:03;;;;;;;1.80;1.70;;;28.30;49.40;;;;;;5048424;28;46395;-72
2023/08/18 00:21:30;;;;;;;1.75;1.60;;;28.20;49.30;;;;;;5048349;28;45326;-72
2023/08/18 00:23:56;;;;;;;2.80;2.30;;;28.20;49.30;;;;;;5048579;28;45311;-72
2023/08/18 00:26:23;;;;;;;2.88;1.90;;;28.20;49.40;;;;;;5048490;28;45255;-72
2023/08/18 00:28:50;;;;;;;3.65;1.77;;;28.20;49.40;;;;;;5048332;28;46733;-72
2023/08/18 00:31:17;;;;;;;2.97;1.88;;;28.20;49.40;;;;;;5047583;28;45251;-72
2023/08/18 00:33:44;;;;;;;1.80;1.70;;;28.20;49.50;;;;;;5047804;28;45254;-72
2023/08/18 00:36:12;;;;;;;1.90;1.80;;;28.10;49.40;;;;;;5048315;28;45287;-72
2023/08/18 00:38:39;;;;;;;2.85;1.80;;;28.10;49.40;;;;;;5048173;28;47257;-72
2023/08/18 00:41:05;;;;;;;2.55;1.65;;;28.10;49.50;;;;;;5048297;28;45310;-72
2023/08/18 00:43:32;;;;;;;2.08;1.73;;;28.10;49.50;;;;;;5048496;28;45349;-72
2023/08/18 00:45:59;;;;;;;2.03;1.83;;;28.00;49.40;;;;;;5048542;28;45481;-72
2023/08/18 00:48:26;;;;;;;2.03;1.83;;;28.00;49.40;;;;;;5048460;28;45299;-73
2023/08/18 00:50:53;;;;;;;3.28;1.80;;;28.00;49.50;;;;;;5048054;28;45381;-72
2023/08/18 00:53:21;;;;;;;1.88;1.77;;;28.00;49.50;;;;;;5047839;28;45314;-72
2023/08/18 00:55:48;;;;;;;1.77;1.67;;;28.00;49.60;;;;;;5048348;28;45349;-72
2023/08/18 00:58:15;;;;;;;2.20;1.75;;;28.00;49.60;;;;;;5047863;28;46287;-71
2023/08/18 01:00:42;;;;;;;2.20;1.52;;;27.90;49.60;;;;;;5047841;28;45266;-72
2023/08/18 01:03:08;;;;;;;2.65;1.60;;;27.90;49.60;;;;;;5048028;28;45318;-72
2023/08/18 01:05:35;;;;;;;2.10;1.77;;;27.90;49.60;;;;;;5048212;28;45347;-72
2023/08/18 01:08:02;;;;;;;2.17;1.67;;;27.90;49.60;;;;;;5047623;28;46327;-72
2023/08/18 01:10:30;;;;;;;1.60;1.50;;;27.90;49.70;;;;;;5048037;28;45255;-71
2023/08/18 01:13:01;;;;;;;2.33;1.70;;;27.90;49.60;;;;;;5047740;28;45301;-71
2023/08/18 01:15:31;;;;;;;3.88;1.70;;;27.80;49.60;;;;;;5047805;28;45640;-72
2023/08/18 01:18:00;;;;;;;2.38;1.63;;;27.80;49.60;;;;;;5047067;28;45307;-71
2023/08/18 01:20:27;;;;;;;1.92;1.73;;;27.80;49.60;;;;;;5046946;28;45179;-72
2023/08/18 01:22:56;;;;;;;1.77;1.55;;;27.80;49.70;;;;;;5047592;28;45398;-71
2023/08/18 01:25:23;;;;;;;1.85;1.55;;;27.80;49.70;;;;;;5047838;28;45399;-71
2023/08/18 01:27:50;;;;;;;2.08;1.88;;;27.70;49.70;;;;;;5047494;28;46403;-71
2023/08/18 01:30:17;;;;;;;1.83;1.73;;;27.70;49.70;;;;;;5047556;28;45382;-71
2023/08/18 01:32:47;;;;;;;1.83;1.52;;;27.70;49.70;;;;;;5047559;28;45318;-72
2023/08/18 01:35:14;;;;;;;1.85;1.75;;;27.70;49.70;;;;;;5047486;28;45460;-72
2023/08/18 01:37:41;;;;;;;2.60;1.50;;;27.70;49.80;;;;;;5047305;28;45381;-72
2023/08/18 01:40:11;;;;;;;3.65;1.80;;;27.70;49.80;;;;;;5047305;28;45325;-72
2023/08/18 01:42:38;;;;;;;2.00;1.65;;;27.60;49.70;;;;;;5047206;28;45376;-71
2023/08/18 01:45:05;;;;;;;1.80;1.70;;;27.60;49.80;;;;;;5046497;28;45458;-72
2023/08/18 01:47:32;;;;;;;2.63;1.52;;;27.60;49.80;;;;;;5046835;28;46409;-71
2023/08/18 01:49:59;;;;;;;2.67;1.70;;;27.60;49.80;;;;;;5047117;28;45294;-72
2023/08/18 01:52:25;;;;;;;2.58;1.65;;;27.60;49.80;;;;;;5046805;28;45183;-72
2023/08/18 01:54:52;;;;;;;2.13;1.58;;;27.60;49.90;;;;;;5047199;28;45393;-72
2023/08/18 01:57:20;;;;;;;2.03;1.83;;;27.60;49.90;;;;;;5046751;28;47262;-71
2023/08/18 01:59:47;;;;;;;2.35;1.50;;;27.50;49.80;;;;;;5047022;28;45269;-72
2023/08/18 02:02:14;;;;;;;1.95;1.70;;;27.50;49.80;;;;;;5046973;28;45270;-72
2023/08/18 02:04:41;;;;;;;2.55;1.65;;;27.50;49.90;;;;;;5046625;28;45398;-71
2023/08/18 02:07:08;;;;;;;2.17;1.60;;;27.50;50.00;;;;;;5046156;28;45567;-71
2023/08/18 02:09:35;;;;;;;1.65;1.55;;;27.50;50.00;;;;;;5046689;28;45457;-71
2023/08/18 02:12:02;;;;;;;1.63;1.40;;;27.50;49.90;;;;;;5046970;28;45337;-71
2023/08/18 02:14:30;;;;;;;1.77;1.67;;;27.40;49.90;;;;;;5046946;28;45346;-71
2023/08/18 02:16:57;;;;;;;2.80;1.70;;;27.40;49.90;;;;;;5046761;28;46401;-72
2023/08/18 02:19:24;;;;;;;2.70;1.92;;;27.40;50.00;;;;;;5046650;28;45414;-72
2023/08/18 02:21:50;;;;;;;2.55;1.83;;;27.40;50.00;;;;;;5046778;28;45307;-72
2023/08/18 02:24:17;;;;;;;3.00;1.40;;;27.40;50.00;;;;;;5046563;28;45476;-71
2023/08/18 02:26:44;;;;;;;1.90;1.67;;;27.40;50.00;;;;;;5046437;28;45258;-72
2023/08/18 02:29:11;;;;;;;1.63;1.30;;;27.40;50.10;;;;;;5046752;28;45207;-71
2023/08/18 02:31:42;;;;;;;2.25;1.58;;;27.30;50.00;;;;;;5046728;28;45313;-71
2023/08/18 02:34:09;;;;;;;1.65;1.50;;;27.30;50.00;;;;;;5046620;28;45251;-71
2023/08/18 02:36:36;;;;;;;1.85;1.40;;;27.30;50.10;;;;;;5045967;28;45457;-71
2023/08/18 02:39:03;;;;;;;3.15;1.70;;;27.30;50.00;;;;;;5046157;28;45306;-72
2023/08/18 02:41:30;;;;;;;1.70;1.60;;;27.30;50.00;;;;;;5046690;28;45393;-71
2023/08/18 02:43:57;;;;;;;1.83;1.70;;;27.30;50.10;;;;;;5046449;28;45378;-72
2023/08/18 02:46:24;;;;;;;1.80;1.50;;;27.20;50.00;;;;;;5046378;28;46617;-72
2023/08/18 02:48:52;;;;;;;2.83;2.00;;;27.20;50.00;;;;;;5046346;28;45249;-72
2023/08/18 02:51:19;;;;;;;1.65;1.50;;;27.20;50.10;;;;;;5045621;28;45231;-72
2023/08/18 02:53:48;;;;;;;1.83;1.55;;;27.20;50.10;;;;;;5045836;28;45356;-72
2023/08/18 02:56:15;;;;;;;1.70;1.60;;;27.20;50.10;;;;;;5045645;28;46846;-72
2023/08/18 02:58:42;;;;;;;1.98;1.67;;;27.20;50.10;;;;;;5046282;28;45211;-72
2023/08/18 03:01:09;;;;;;;1.70;1.60;;;27.20;50.10;;;;;;5046395;28;45258;-72
2023/08/18 03:03:36;;;;;;;2.47;1.75;;;27.10;50.00;;;;;;5046445;28;45477;-71
2023/08/18 03:06:05;;;;;;;1.77;1.48;;;27.10;50.10;;;;;;5046036;28;47299;-72
2023/08/18 03:08:32;;;;;;;1.50;1.40;;;27.10;50.10;;;;;;5046147;28;45375;-71
2023/08/18 03:11:00;;;;;;;1.70;1.50;;;27.10;50.20;;;;;;5046128;28;45434;-71
2023/08/18 03:13:27;;;;;;;2.85;1.35;;;27.10;50.20;;;;;;5046521;28;45505;-71
2023/08/18 03:15:53;;;;;;;2.78;1.48;;;27.00;50.10;;;;;;5045581;28;46576;-72
2023/08/18 03:18:19;;;;;;;1.75;1.60;;;27.00;50.10;;;;;;5046946;28;45167;-72
2023/08/18 03:20:47;;;;;;;1.95;1.63;;;27.10;50.20;;;;;;5045863;28;45250;-72
2023/08/18 03:23:15;;;;;;;1.90;1.60;;;27.00;50.80;;;;;;5045883;28;45487;-71
2023/08/18 03:25:42;;;;;;;1.75;1.65;;;27.00;50.20;;;;;;5045795;28;46734;-70
2023/08/18 03:28:09;;;;;;;2.08;1.40;;;27.00;50.20;;;;;;5045754;28;45290;-69
2023/08/18 03:30:37;;;;;;;1.60;1.50;;;27.00;50.20;;;;;;5045696;28;45333;-69
2023/08/18 03:33:04;;;;;;;1.95;1.50;;;26.90;50.20;;;;;;5046086;28;45290;-69
2023/08/18 03:35:32;;;;;;;1.70;1.60;;;27.00;50.30;;;;;;5045146;28;47053;-69
2023/08/18 03:37:59;;;;;;;1.67;1.40;;;26.90;50.30;;;;;;5044938;28;45314;-69
2023/08/18 03:40:27;;;;;;;2.40;1.65;;;26.90;50.30;;;;;;5046117;28;45263;-69
2023/08/18 03:42:54;;;;;;;2.78;1.55;;;26.90;50.30;;;;;;5045915;28;45324;-69
2023/08/18 03:45:21;;;;;;;1.90;1.35;;;26.90;50.40;;;;;;5045607;28;46306;-69
2023/08/18 03:47:47;;;;;;;1.70;1.50;;;26.90;50.40;;;;;;5045750;28;45373;-69
2023/08/18 03:50:14;;;;;;;1.60;1.50;;;26.90;50.40;;;;;;5045632;28;45305;-69
2023/08/18 03:52:41;;;;;;;1.70;1.60;;;26.90;50.40;;;;;;5045486;28;45409;-70
2023/08/18 03:55:09;;;;;;;1.63;1.52;;;26.80;50.40;;;;;;5045309;28;45533;-69
2023/08/18 03:57:37;;;;;;;1.38;1.27;;;26.80;50.40;;;;;;5045488;28;45310;-69
2023/08/18 04:00:09;;;;;;;1.75;1.30;;;26.80;50.40;;;;;;5045688;28;45325;-69
2023/08/18 04:02:36;;;;;;;1.75;1.50;;;26.70;50.40;;;;;;5045714;28;45413;-69
2023/08/18 04:05:03;;;;;;;1.52;1.42;;;26.70;50.40;;;;;;5045195;28;45470;-69
2023/08/18 04:07:30;;;;;;;1.88;1.63;;;26.80;50.40;;;;;;5046427;28;45322;-69
2023/08/18 04:09:56;;;;;;;1.42;1.33;;;26.70;50.40;;;;;;5048804;28;45218;-69
2023/08/18 04:12:23;;;;;;;1.80;1.52;;;26.70;50.50;;;;;;5048986;28;45397;-69
2023/08/18 04:14:51;;;;;;;1.70;1.60;;;26.70;50.50;;;;;;5048302;28;46421;-69
2023/08/18 04:17:18;;;;;;;1.40;1.30;;;26.70;50.40;;;;;;5048432;28;45262;-69
2023/08/18 04:19:45;;;;;;;1.60;1.50;;;26.70;50.50;;;;;;5048662;28;45303;-69
2023/08/18 04:22:12;;;;;;;1.98;1.35;;;26.70;50.50;;;;;;5048913;28;45468;-69
2023/08/18 04:24:39;;;;;;;1.67;1.58;;;26.60;50.30;;;;;;5047595;28;45286;-69
2023/08/18 04:27:05;;;;;;;1.98;1.75;;;26.60;50.50;;;;;;5048669;28;45397;-69
2023/08/18 04:29:33;;;;;;;2.35;1.50;;;26.60;50.40;;;;;;5048740;28;45365;-69
2023/08/18 04:32:01;;;;;;;1.88;1.42;;;26.60;50.40;;;;;;5048807;28;45342;-69
2023/08/18 04:34:28;;;;;;;2.08;1.40;;;26.60;50.50;;;;;;5048148;28;45462;-69
2023/08/18 04:36:55;;;;;;;1.75;1.60;;;26.60;50.50;;;;;;5048155;28;45454;-69
2023/08/18 04:39:22;;;;;;;2.00;1.52;;;26.60;50.50;;;;;;5048368;28;45468;-69
2023/08/18 04:41:48;;;;;;;1.45;1.35;;;26.50;50.40;;;;;;5048620;28;45351;-70
2023/08/18 04:44:15;;;;;;;3.33;1.40;;;26.50;50.40;;;;;;5048169;28;45294;-69
2023/08/18 04:46:42;;;;;;;1.77;1.50;;;26.50;50.40;;;;;;5048167;28;45260;-70
2023/08/18 04:49:10;;;;;;;1.77;1.50;;;26.50;50.50;;;;;;5048286;28;45539;-69
2023/08/18 04:51:37;;;;;;;2.05;1.60;;;26.50;50.50;;;;;;5048149;28;45387;-69
2023/08/18 04:54:04;;;;;;;3.03;1.60;;;26.50;50.50;;;;;;5047804;28;46438;-69
2023/08/18 04:56:31;;;;;;;2.17;1.33;;;26.50;50.50;;;;;;5047805;28;45255;-69
2023/08/18 04:58:58;;;;;;;1.55;1.45;;;26.50;50.40;;;;;;5048112;28;45242;-69
2023/08/18 05:01:25;;;;;;;1.67;1.42;;;26.50;50.50;;;;;;5048142;28;45458;-69
2023/08/18 05:03:52;;;;;;;1.73;1.63;;;26.50;50.50;;;;;;5047814;28;46330;-69
2023/08/18 05:06:20;;;;;;;3.08;1.52;;;26.50;50.50;;;;;;5045148;28;45469;-70
2023/08/18 05:08:46;;;;;;;1.63;1.38;;;26.50;50.50;;;;;;5047243;28;45298;-69
2023/08/18 05:11:13;;;;;;;2.85;1.52;;;26.50;50.50;;;;;;5047642;28;45327;-69
2023/08/18 05:13:41;;;;;;;1.42;1.33;;;26.50;50.50;;;;;;5047613;28;45313;-70
2023/08/18 05:16:08;;;;;;;2.22;1.33;;;26.50;50.50;;;;;;5047525;28;45210;-70
2023/08/18 05:18:36;;;;;;;1.85;1.60;;;26.40;50.50;;;;;;5047681;28;45274;-69
2023/08/18 05:21:03;;;;;;;1.52;1.42;;;26.40;50.50;;;;;;5048044;28;45207;-69
2023/08/18 05:23:31;;;;;;;1.63;1.40;;;26.40;50.50;;;;;;5047556;28;45286;-70
2023/08/18 05:25:59;;;;;;;2.20;1.45;;;26.40;50.50;;;;;;5047323;28;45318;-70
2023/08/18 05:28:28;;;;;;;2.22;1.38;;;26.40;50.50;;;;;;5047756;28;45358;-70
2023/08/18 05:30:54;;;;;;;1.90;1.50;;;26.40;50.50;;;;;;5047509;28;45330;-70
2023/08/18 05:33:21;;;;;;;1.50;1.40;;;26.40;50.60;;;;;;5047218;28;45392;-70
2023/08/18 05:35:48;;;;;;;1.88;1.60;;;26.40;51.10;;;;;;5047275;28;45353;-69
2023/08/18 05:38:15;;;;;;;1.98;1.50;;;26.40;50.60;;;;;;5044748;28;45349;-70
2023/08/18 05:40:44;;;;;;;1.52;1.40;;;26.40;50.60;;;;;;5044954;28;45421;-70
2023/08/18 05:43:11;;;;;;;2.63;1.50;;;26.40;50.60;;;;;;5047272;28;45302;-69
2023/08/18 05:45:37;;;;;;;1.52;1.42;;;26.40;50.50;;;;;;5047176;28;45396;-69
2023/08/18 05:48:05;;;;;;;2.40;1.27;;;26.40;50.50;;;;;;5047579;28;45319;-69
2023/08/18 05:50:32;;;;;;;2.30;1.70;;;26.40;50.50;;;;;;5047569;28;45401;-69
2023/08/18 05:52:59;;;;;;;1.67;1.50;;;26.40;50.50;;;;;;5046904;28;45374;-69
2023/08/18 05:55:26;;;;;;;1.63;1.52;;;26.40;50.60;;;;;;5046187;28;45445;-69
2023/08/18 05:57:54;;;;;;;1.83;1.40;;;26.40;50.60;;;;;;5047109;28;45390;-69
2023/08/18 06:00:21;;;;;;;1.60;1.50;;;26.40;51.10;;;;;;5047364;28;45263;-70
2023/08/18 06:02:48;;;;;;;1.55;1.45;;;26.40;50.50;;;;;;5047052;28;45239;-70
2023/08/18 06:05:15;;;;;;;1.48;1.38;;;26.40;50.50;;;;;;5046795;28;45503;-69
2023/08/18 06:07:42;;;;;;;1.42;1.33;;;26.40;50.50;;;;;;5047198;28;45405;-70
2023/08/18 06:10:09;;;;;;;1.52;1.40;;;26.40;50.50;;;;;;5047123;28;45361;-69
2023/08/18 06:12:37;;;;;;;1.60;1.50;;;26.40;50.50;;;;;;5047027;28;46171;-69
2023/08/18 06:15:07;;;;;;;3.72;1.63;;;26.40;50.60;;;;;;5046442;28;46083;-69
2023/08/18 06:17:33;;;;;;;2.47;1.52;;;26.40;50.50;;;;;;5046880;28;45425;-69
2023/08/18 06:20:00;;;;;;;1.75;1.60;;;26.40;50.60;;;;;;5046790;28;45607;-69
2023/08/18 06:22:27;;;;;;;2.42;1.70;;;26.40;50.60;;;;;;5046574;28;45271;-70
2023/08/18 06:24:54;;;;;;;1.40;1.30;;;26.40;50.70;;;;;;5046602;28;45666;-70
2023/08/18 06:27:21;;;;;;;1.75;1.63;;;26.40;50.60;;;;;;5046646;28;45389;-69
2023/08/18 06:29:48;;;;;;;1.45;1.35;;;26.40;50.60;;;;;;5046314;28;45318;-70
2023/08/18 06:32:16;;;;;;;1.35;1.25;;;26.40;50.60;;;;;;5046358;28;46681;-69
2023/08/18 06:34:43;;;;;;;1.90;1.40;;;26.40;50.60;;;;;;5046290;28;45286;-69
2023/08/18 06:37:09;;;;;;;1.50;1.40;;;26.40;50.60;;;;;;5046684;28;45309;-70
2023/08/18 06:39:36;;;;;;;1.75;1.65;;;26.40;50.50;;;;;;5046416;28;45401;-69
2023/08/18 06:42:03;;;;;;;2.88;1.40;;;26.40;50.50;;;;;;5045502;28;45609;-69
2023/08/18 06:44:32;;;;;;;1.95;1.63;;;26.50;50.60;;;;;;5046410;28;45258;-70
2023/08/18 06:46:59;;;;;;;1.85;1.40;;;26.50;50.60;;;;;;5046459;28;45332;-70
2023/08/18 06:49:27;;;;;;;1.80;1.55;;;26.50;50.60;;;;;;5053539;28;45488;-70
2023/08/18 06:51:54;;;;;;;1.50;1.40;;;26.50;50.70;;;;;;5066044;28;45374;-69
2023/08/18 06:54:21;;;;;;;2.75;1.60;;;26.50;50.70;;;;;;5066300;28;45195;-69
2023/08/18 06:56:47;;;;;;;6.22;2.78;;;26.50;50.70;;;;;;5065797;28;45317;-69
2023/08/18 06:59:14;;;;;;;5.43;2.67;;;26.40;51.30;;;;;;5066283;28;45488;-69
2023/08/18 07:01:41;;;;;;;4.43;2.90;;;26.40;51.70;;;;;;5065167;28;46739;-68
2023/08/18 07:04:08;;;;;;;4.93;2.80;;;26.40;52.10;;;;;;5063536;28;45387;-65
2023/08/18 07:06:36;;;;;;;5.18;2.67;;;26.40;52.30;;;;;;5060452;28;45336;-69
2023/08/18 07:09:04;;;;;;;7.03;3.15;;;26.30;52.40;;;;;;5066399;28;45408;-69
2023/08/18 07:11:31;;;;;;;8.20;3.63;;;26.30;52.90;;;;;;5064099;28;45494;-69
2023/08/18 07:13:58;;;;;;;9.95;3.15;;;26.20;53.10;;;;;;5065341;28;45493;-69
2023/08/18 07:16:25;;;;;;;5.18;2.88;;;26.20;53.30;;;;;;5066421;28;45377;-69
2023/08/18 07:18:51;;;;;;;3.15;2.33;;;26.20;53.20;;;;;;5066285;28;45527;-69
2023/08/18 07:21:18;;;;;;;8.45;3.15;;;26.20;53.30;;;;;;5065242;28;45527;-70
2023/08/18 07:23:46;;;;;;;7.35;3.13;;;26.20;53.40;;;;;;5063918;28;45588;-69
2023/08/18 07:26:13;;;;;;;4.30;2.60;;;26.20;53.30;;;;;;5063496;28;45345;-69
2023/08/18 07:28:40;;;;;;;4.63;3.00;;;26.20;53.20;;;;;;5066154;28;45566;-69
2023/08/18 07:31:07;;;;;;;3.92;2.90;;;26.20;52.90;;;;;;5062539;28;45305;-71
2023/08/18 07:33:36;;;;;;;7.32;3.20;;;26.20;53.10;;;;;;5061771;28;45385;-69
2023/08/18 07:36:02;;;;;;;5.90;2.53;;;26.20;53.40;;;;;;5065796;28;45459;-69
2023/08/18 07:38:31;;;;;;;3.90;2.78;;;26.20;52.90;;;;;;5066030;28;45386;-70
2023/08/18 07:40:59;;;;;;;2.72;2.47;;;26.20;53.20;;;;;;5065720;28;46471;-69
2023/08/18 07:43:26;;;;;;;5.03;2.47;;;26.20;53.30;;;;;;5068088;28;45340;-70
2023/08/18 07:45:53;;;;;;;7.80;2.97;;;26.20;53.00;;;;;;5068708;28;45377;-69
2023/08/18 07:48:20;;;;;;;5.72;3.05;;;26.30;53.20;;;;;;5068631;28;45429;-69
2023/08/18 07:50:47;;;;;;;4.35;3.00;;;26.30;54.00;;;;;;5067126;28;45353;-69
2023/08/18 07:53:13;;;;;;;3.83;3.25;;;26.30;53.80;;;;;;5069036;28;45190;-69
2023/08/18 07:55:40;;;;;;;7.93;3.17;;;26.30;53.90;;;;;;5068773;28;45297;-69
2023/08/18 07:58:09;;;;;;;4.00;2.80;;;26.30;53.80;;;;;;5067506;28;45543;-70
2023/08/18 08:00:36;;;;;;;6.53;2.67;;;26.40;53.60;;;;;;5068356;28;46284;-69
2023/08/18 08:03:02;;;;;;;5.45;2.70;;;26.40;53.30;;;;;;5068816;28;45191;-69
2023/08/18 08:05:30;;;;;;;3.95;2.45;;;26.50;53.20;;;;;;5069270;28;45238;-69
2023/08/18 08:07:56;;;;;;;6.18;2.88;;;26.50;52.80;;;;;;5069457;28;45567;-69
2023/08/18 08:10:23;;;;;;;5.15;2.55;;;26.50;52.50;;;;;;5063925;28;45500;-68
2023/08/18 08:12:50;;;;;;;5.63;2.53;;;26.50;52.10;;;;;;5059263;28;45313;-69
2023/08/18 08:15:18;;;;;;;4.15;1.98;;;26.50;51.80;;;;;;5049082;28;45186;-69
2023/08/18 08:17:45;;;;;;;3.58;2.15;;;26.60;50.30;;;;;;5061818;28;45766;-69
2023/08/18 08:20:15;;;;;;;3.17;2.20;;;26.50;49.70;;;;;;5068939;28;46272;-69
2023/08/18 08:22:42;;;;;;;4.13;2.47;;;26.60;49.70;;;;;;5069199;28;45308;-69
2023/08/18 08:25:10;;;;;;;4.93;2.30;;;26.60;50.10;;;;;;5068961;28;45325;-69
2023/08/18 08:27:37;;;;;;;6.43;2.22;;;26.70;49.20;;;;;;5067821;28;45444;-68
2023/08/18 08:30:04;;;;;;;4.13;2.50;;;26.60;48.90;;;;;;5068757;28;46257;-69
2023/08/18 08:32:32;;;;;;;3.75;1.90;;;26.70;48.90;;;;;;5067710;28;45319;-69
2023/08/18 08:34:59;;;;;;;5.65;2.13;;;26.80;48.60;;;;;;5068681;28;45277;-69
2023/08/18 08:37:26;;;;;;;5.97;2.40;;;26.80;48.90;;;;;;5068653;28;45424;-69
2023/08/18 08:39:53;;;;;;;4.28;2.05;;;26.90;48.90;;;;;;5066461;28;45347;-71
2023/08/18 08:42:20;;;;;;;3.45;2.08;;;26.90;48.80;;;;;;5063796;28;45546;-69
2023/08/18 08:44:46;;;;;;;3.28;1.90;;;26.90;48.90;;;;;;5064522;28;45490;-69
2023/08/18 08:47:13;;;;;;;5.68;2.35;;;26.90;49.30;;;;;;5066925;28;45318;-69
2023/08/18 08:49:43;;;;;;;4.30;2.33;;;26.90;49.20;;;;;;5068158;28;46815;-69
2023/08/18 08:52:13;;;;;;;3.88;2.30;;;26.90;49.60;;;;;;5067278;28;45306;-70
2023/08/18 08:54:41;;;;;;;4.18;2.20;;;27.00;49.70;;;;;;5067838;28;45306;-69
2023/08/18 08:57:07;;;;;;;3.45;2.65;;;27.00;49.80;;;;;;5067498;28;45446;-70
2023/08/18 08:59:34;;;;;;;3.88;2.42;;;27.00;49.70;;;;;;5066340;28;46364;-69
2023/08/18 09:02:01;;;;;;;5.07;2.20;;;27.10;49.50;;;;;;5066623;28;45238;-71
2023/08/18 09:04:28;;;;;;;4.35;2.42;;;27.10;49.30;;;;;;5066764;28;45396;-69
2023/08/18 09:06:57;;;;;;;4.80;2.22;;;27.10;49.00;;;;;;5067148;28;45496;-69
2023/08/18 09:09:25;;;;;;;3.00;2.20;;;27.20;49.00;;;;;;5067800;28;46580;-69
2023/08/18 09:11:51;;;;;;;3.47;2.40;;;27.20;49.10;;;;;;5067928;28;45324;-69
2023/08/18 09:14:18;;;;;;;4.05;2.35;;;27.20;49.20;;;;;;5066581;28;45538;-69
2023/08/18 09:16:45;;;;;;;4.97;2.45;;;27.20;49.30;;;;;;5068295;28;45201;-69
2023/08/18 09:19:12;;;;;;;6.97;2.42;;;27.20;49.50;;;;;;5066803;28;45448;-70
2023/08/18 09:21:39;;;;;;;2.63;2.40;;;27.30;49.50;;;;;;5066354;28;45452;-70
2023/08/18 09:24:08;;;;;;;5.32;2.10;;;27.40;49.40;;;;;;5067450;28;45225;-70
2023/08/18 09:26:35;;;;;;;3.10;2.33;;;27.40;49.40;;;;;;5067966;28;45417;-69
2023/08/18 09:29:02;;;;;;;9.98;3.50;;;27.40;49.80;;;;;;5064402;28;45460;-70
2023/08/18 09:31:30;;;;;;;2.92;2.20;;;27.40;49.70;;;;;;5065230;28;45376;-70
2023/08/18 09:33:58;;;;;;;2.90;2.35;;;27.50;49.80;;;;;;5057461;28;45304;-67
2023/08/18 09:36:26;;;;;;;4.30;2.28;;;27.60;50.00;;;;;;5065293;28;45316;-69
2023/08/18 09:38:53;;;;;;;3.80;2.40;;;27.70;50.20;;;;;;5066693;28;46651;-70
2023/08/18 09:41:21;;;;;;;3.50;2.60;;;27.70;50.10;;;;;;5067488;28;45344;-69
2023/08/18 09:43:48;;;;;;;6.05;2.70;;;27.80;49.90;;;;;;5066409;28;45147;-69
2023/08/18 09:46:16;;;;;;;5.18;2.72;;;27.80;50.20;;;;;;5066797;28;45343;-69
2023/08/18 09:48:45;;;;;;;8.02;2.75;;;27.80;49.90;;;;;;5066284;28;45733;-69
2023/08/18 09:51:13;;;;;;;4.88;2.67;;;27.80;49.30;;;;;;5064065;28;45566;-70
2023/08/18 09:53:42;;;;;;;4.97;2.70;;;27.90;49.20;;;;;;5055547;28;45424;-69
2023/08/18 09:56:11;;;;;;;5.05;2.90;;;27.90;49.40;;;;;;5057723;28;45456;-70
2023/08/18 09:58:43;;;;;;;5.72;2.90;;;28.00;49.50;;;;;;5063376;28;45389;-70
2023/08/18 10:01:10;;;;;;;5.63;2.38;;;28.10;49.40;;;;;;5058576;28;45425;-69
2023/08/18 10:03:37;;;;;;;3.75;2.95;;;28.10;49.30;;;;;;5057968;28;45451;-69
2023/08/18 10:06:06;;;;;;;3.17;2.53;;;28.10;49.20;;;;;;5066149;28;45351;-70
2023/08/18 10:08:33;;;;;;;4.13;3.10;;;28.20;49.20;;;;;;5058309;28;45448;-69
2023/08/18 10:11:00;;;;;;;3.35;2.55;;;28.30;49.20;;;;;;5065241;28;45349;-70
2023/08/18 10:13:29;;;;;;;4.95;2.75;;;28.30;49.10;;;;;;5066997;28;45385;-70
2023/08/18 10:15:57;;;;;;;4.72;3.05;;;28.30;48.80;;;;;;5065380;28;45238;-69
2023/08/18 10:18:24;;;;;;;3.83;2.42;;;28.40;48.80;;;;;;5065788;28;46658;-70
2023/08/18 10:20:51;;;;;;;4.03;2.60;;;28.50;48.80;;;;;;5066565;28;45463;-70
2023/08/18 10:23:18;;;;;;;5.15;2.88;;;28.50;48.70;;;;;;5065016;28;45377;-70
2023/08/18 10:25:45;;;;;;;6.45;2.85;;;28.60;48.60;;;;;;5067047;28;45273;-70
2023/08/18 10:28:17;;;;;;;2.97;2.70;;;28.60;48.60;;;;;;5065539;28;46945;-70
2023/08/18 10:30:47;;;;;;;7.15;2.83;;;28.70;48.60;;;;;;5060283;28;45344;-69
2023/08/18 10:33:15;;;;;;;4.20;2.83;;;28.70;48.70;;;;;;5064694;28;45473;-70
2023/08/18 10:35:43;;;;;;;4.55;3.08;;;28.80;48.70;;;;;;5065223;28;45418;-71
2023/08/18 10:38:11;;;;;;;5.93;2.88;;;28.80;48.80;;;;;;5066549;28;45332;-70
2023/08/18 10:40:38;;;;;;;3.72;2.50;;;28.90;48.80;;;;;;5064991;28;45580;-70
2023/08/18 10:43:07;;;;;;;5.75;2.83;;;28.90;48.90;;;;;;5064719;28;45507;-70
2023/08/18 10:45:34;;;;;;;5.85;3.13;;;29.00;49.10;;;;;;5052606;28;45396;-70
2023/08/18 10:48:02;;;;;;;5.90;2.88;;;29.00;49.20;;;;;;5065581;28;46354;-70
2023/08/18 10:50:31;;;;;;;9.40;3.65;;;29.10;49.20;;;;;;5065913;28;45341;-70
2023/08/18 10:52:58;;;;;;;7.95;3.40;;;29.10;49.10;;;;;;5051341;28;45275;-70
2023/08/18 10:55:25;;;;;;;17.25;4.00;;;29.20;49.10;;;;;;5063038;28;45451;-70
2023/08/18 10:57:52;;;;;;;15.50;4.00;;;29.30;49.10;;;;;;5064001;28;46346;-70
2023/08/18 11:00:19;;;;;;;13.93;3.70;;;29.40;49.10;;;;;;5063424;28;45443;-70
2023/08/18 11:02:47;;;;;;;15.82;4.13;;;29.40;49.00;;;;;;5066059;28;45382;-71
2023/08/18 11:05:14;;;;;;;9.98;4.28;;;29.50;48.80;;;;;;5066426;28;45415;-70
2023/08/18 11:07:42;;;;;;;13.23;4.55;;;29.60;48.70;;;;;;5063609;28;45523;-70
2023/08/18 11:10:19;;;;;;;14.20;4.70;;;29.60;48.60;;;;;;5065859;28;45458;-71
2023/08/18 11:12:46;;;;;;;9.98;3.72;;;29.70;48.30;;;;;;5066975;28;45511;-71
2023/08/18 11:15:13;;;;;;;6.15;3.13;;;29.80;48.10;;;;;;5066502;28;45462;-70
2023/08/18 11:17:40;;;;;;;9.80;3.67;;;29.90;47.40;;;;;;5067707;28;45459;-69
2023/08/18 11:20:08;;;;;;;6.80;3.80;;;29.90;47.40;;;;;;5067515;28;45315;-70
2023/08/18 11:22:36;;;;;;;10.50;3.95;;;30.00;47.10;;;;;;5069779;28;45354;-70
2023/08/18 11:25:05;;;;;;;4.43;3.10;;;30.10;46.80;;;;;;5066355;28;45387;-72
2023/08/18 11:27:32;;;;;;;6.20;3.47;;;30.10;46.70;;;;;;5069559;28;46740;-71
2023/08/18 11:29:58;;;;;;;3.88;3.13;;;30.20;46.40;;;;;;5068447;28;45389;-72
2023/08/18 11:32:25;;;;;;;6.18;3.50;;;30.30;46.20;;;;;;5069763;28;45352;-72
2023/08/18 11:34:52;;;;;;;6.78;3.15;;;30.30;45.50;;;;;;5067702;28;45475;-72
2023/08/18 11:37:21;;;;;;;5.03;3.03;;;30.50;45.70;;;;;;5068539;28;46393;-72
2023/08/18 11:39:48;;;;;;;4.88;3.38;;;30.50;45.30;;;;;;5067984;28;45436;-71
2023/08/18 11:42:17;;;;;;;5.25;2.75;;;30.60;45.20;;;;;;5066577;28;45319;-72
2023/08/18 11:44:44;;;;;;;4.93;3.25;;;30.70;45.30;;;;;;5050450;28;45329;-71
2023/08/18 11:47:11;;;;;;;3.75;2.97;;;30.70;45.20;;;;;;5049086;28;45457;-71
2023/08/18 11:49:38;;;;;;;4.20;2.90;;;30.80;45.10;;;;;;5052304;28;45478;-71
2023/08/18 11:52:05;;;;;;;8.68;3.33;;;30.90;44.90;;;;;;5067080;28;45500;-71
2023/08/18 11:54:33;;;;;;;5.35;3.05;;;31.00;44.60;;;;;;5067746;28;45357;-71
2023/08/18 11:57:00;;;;;;;6.68;2.90;;;31.00;44.60;;;;;;5065426;28;46427;-72
2023/08/18 11:59:28;;;;;;;5.53;2.97;;;31.10;44.10;;;;;;5065830;28;45396;-73
2023/08/18 12:01:56;;;;;;;4.38;2.78;;;31.20;44.20;;;;;;5063884;28;45404;-73
2023/08/18 12:04:26;;;;;;;5.95;3.08;;;31.20;44.20;;;;;;5061205;28;45644;-74
2023/08/18 12:06:53;;;;;;;4.25;3.17;;;31.30;44.30;;;;;;5068118;28;46982;-72
2023/08/18 12:09:20;;;;;;;3.30;2.80;;;31.30;44.00;;;;;;5067368;28;45365;-73
2023/08/18 12:11:47;;;;;;;4.82;2.80;;;31.30;43.70;;;;;;5067062;28;45510;-73
2023/08/18 12:14:14;;;;;;;5.55;2.85;;;31.40;43.70;;;;;;5068062;28;45307;-73
2023/08/18 12:16:42;;;;;;;3.50;3.05;;;31.50;43.20;;;;;;5067141;28;45419;-72
2023/08/18 12:19:09;;;;;;;4.32;3.22;;;31.50;43.40;;;;;;5066502;28;45500;-72
2023/08/18 12:21:36;;;;;;;5.75;2.83;;;31.50;43.30;;;;;;5065968;28;45428;-72
2023/08/18 12:24:04;;;;;;;3.35;2.83;;;31.60;43.50;;;;;;5068789;28;45374;-73
2023/08/18 12:26:31;;;;;;;4.47;2.60;;;31.70;43.20;;;;;;5066708;28;45428;-73
2023/08/18 12:28:58;;;;;;;4.63;2.40;;;31.70;42.80;;;;;;5067336;28;45186;-73
2023/08/18 12:31:25;;;;;;;4.38;2.88;;;31.80;43.00;;;;;;5067589;28;45303;-74
2023/08/18 12:33:53;;;;;;;4.00;2.58;;;31.80;42.70;;;;;;5066701;28;45565;-73
2023/08/18 12:36:20;;;;;;;6.20;3.25;;;31.90;42.60;;;;;;5066963;28;45466;-74
2023/08/18 12:38:47;;;;;;;3.83;2.50;;;31.90;42.30;;;;;;5067481;28;45270;-73
2023/08/18 12:41:14;;;;;;;4.82;2.75;;;32.00;42.50;;;;;;5065234;28;45538;-73
2023/08/18 12:43:41;;;;;;;3.92;2.33;;;32.00;42.40;;;;;;5066949;28;45217;-74
2023/08/18 12:46:08;;;;;;;3.72;3.25;;;32.10;42.00;;;;;;5066818;28;45429;-75